sensor_id;sensor_type;location;lat;lon;timestamp;pressure;altitude;pressure_sealevel;temperature;humidity
50250;BME280;36133;42.522;27.456;2023-04-28T00:00:02;101547.50;;;13.87;42.10
50250;BME280;36133;42.522;27.456;2023-04-28T00:02:31;101499.50;;;14.24;41.16
50250;BME280;36133;42.522;27.456;2023-04-28T00:04:58;101295.13;;;13.00;41.20
50250;BME280;36133;42.522;27.456;2023-04-28T00:07:24;101427.63;;;14.26;40.48
50250;BME280;36133;42.522;27.456;2023-04-28T00:09:52;101499.97;;;15.26;39.33
50250;BME280;36133;42.522;27.456;2023-04-28T00:12:18;101312.41;;;13.29;40.33
50250;BME280;36133;42.522;27.456;2023-04-28T00:14:43;101373.44;;;13.75;39.64
50250;BME280;36133;42.522;27.456;2023-04-28T00:17:09;101356.16;;;13.26;39.37
50250;BME280;36133;42.522;27.456;2023-04-28T00:19:37;100984.69;;;11.09;39.24
50250;BME280;36133;42.522;27.456;2023-04-28T00:22:03;101079.66;;;11.73;39.09
50250;BME280;36133;42.522;27.456;2023-04-28T00:24:29;101280.69;;;12.49;40.05
50250;BME280;36133;42.522;27.456;2023-04-28T00:26:55;101472.72;;;14.21;39.10
50250;BME280;36133;42.522;27.456;2023-04-28T00:29:21;101274.03;;;12.51;39.33
50250;BME280;36133;42.522;27.456;2023-04-28T00:31:47;101380.50;;;13.55;38.78
50250;BME280;36133;42.522;27.456;2023-04-28T00:34:12;101348.00;;;13.40;38.60
50250;BME280;36133;42.522;27.456;2023-04-28T00:36:39;101111.22;;;12.10;38.15
50250;BME280;36133;42.522;27.456;2023-04-28T00:39:05;101549.19;;;13.88;39.38
50250;BME280;36133;42.522;27.456;2023-04-28T00:41:30;101370.25;;;13.51;38.40
50250;BME280;36133;42.522;27.456;2023-04-28T00:43:56;101375.88;;;13.49;38.57
50250;BME280;36133;42.522;27.456;2023-04-28T00:46:28;101435.13;;;13.67;38.71
50250;BME280;36133;42.522;27.456;2023-04-28T00:48:55;101186.84;;;12.12;38.67
50250;BME280;36133;42.522;27.456;2023-04-28T00:51:20;101232.56;;;12.21;38.43
50250;BME280;36133;42.522;27.456;2023-04-28T00:53:47;101233.31;;;12.15;38.86
50250;BME280;36133;42.522;27.456;2023-04-28T00:56:12;101475.78;;;13.60;38.44
50250;BME280;36133;42.522;27.456;2023-04-28T00:58:39;101561.06;;;14.53;37.37
50250;BME280;36133;42.522;27.456;2023-04-28T01:01:06;101578.66;;;13.91;38.56
50250;BME280;36133;42.522;27.456;2023-04-28T01:03:39;101565.03;;;14.35;38.02
50250;BME280;36133;42.522;27.456;2023-04-28T01:06:06;101354.56;;;13.31;37.68
50250;BME280;36133;42.522;27.456;2023-04-28T01:08:34;101452.19;;;13.97;37.41
50250;BME280;36133;42.522;27.456;2023-04-28T01:11:00;101574.38;;;14.48;36.97
50250;BME280;36133;42.522;27.456;2023-04-28T01:13:26;101576.06;;;13.98;37.71
50250;BME280;36133;42.522;27.456;2023-04-28T01:15:53;101544.81;;;14.23;36.83
50250;BME280;36133;42.522;27.456;2023-04-28T01:18:19;101576.28;;;14.32;37.12
50250;BME280;36133;42.522;27.456;2023-04-28T01:20:45;101579.81;;;13.82;37.36
50250;BME280;36133;42.522;27.456;2023-04-28T01:23:16;101417.78;;;13.46;36.43
50250;BME280;36133;42.522;27.456;2023-04-28T01:25:42;101204.94;;;12.26;36.17
50250;BME280;36133;42.522;27.456;2023-04-28T01:28:08;101504.81;;;13.96;36.48
50250;BME280;36133;42.522;27.456;2023-04-28T01:30:34;101540.69;;;14.63;36.14
50250;BME280;36133;42.522;27.456;2023-04-28T01:33:01;101423.66;;;13.06;37.46
50250;BME280;36133;42.522;27.456;2023-04-28T01:35:26;101555.19;;;14.71;36.43
50250;BME280;36133;42.522;27.456;2023-04-28T01:37:52;101542.44;;;13.99;37.08
50250;BME280;36133;42.522;27.456;2023-04-28T01:40:18;101592.13;;;14.65;36.60
50250;BME280;36133;42.522;27.456;2023-04-28T01:42:43;101602.59;;;14.17;37.06
50250;BME280;36133;42.522;27.456;2023-04-28T01:45:09;101590.63;;;14.26;36.77
50250;BME280;36133;42.522;27.456;2023-04-28T01:47:35;101370.63;;;13.18;35.84
50250;BME280;36133;42.522;27.456;2023-04-28T01:50:01;101432.16;;;13.62;35.43
50250;BME280;36133;42.522;27.456;2023-04-28T01:52:27;101247.03;;;12.73;34.67
50250;BME280;36133;42.522;27.456;2023-04-28T01:54:53;101535.03;;;14.44;34.79
50250;BME280;36133;42.522;27.456;2023-04-28T01:57:19;101364.31;;;13.26;34.83
50250;BME280;36133;42.522;27.456;2023-04-28T01:59:45;101442.06;;;13.69;34.78
50250;BME280;36133;42.522;27.456;2023-04-28T02:02:10;101444.16;;;13.38;35.40
50250;BME280;36133;42.522;27.456;2023-04-28T02:04:39;101042.06;;;12.08;33.57
50250;BME280;36133;42.522;27.456;2023-04-28T02:07:05;101342.91;;;13.52;34.31
50250;BME280;36133;42.522;27.456;2023-04-28T02:09:32;101585.38;;;15.53;33.45
50250;BME280;36133;42.522;27.456;2023-04-28T02:11:58;101494.22;;;14.01;34.90
50250;BME280;36133;42.522;27.456;2023-04-28T02:14:30;101258.50;;;12.89;34.57
50250;BME280;36133;42.522;27.456;2023-04-28T02:16:58;101410.69;;;14.67;33.96
50250;BME280;36133;42.522;27.456;2023-04-28T02:19:24;101298.44;;;13.32;35.12
50250;BME280;36133;42.522;27.456;2023-04-28T02:21:52;101310.00;;;12.89;35.90
50250;BME280;36133;42.522;27.456;2023-04-28T02:24:17;101341.22;;;13.87;34.92
50250;BME280;36133;42.522;27.456;2023-04-28T02:26:43;101162.81;;;12.09;35.96
50250;BME280;36133;42.522;27.456;2023-04-28T02:29:11;101616.31;;;15.24;35.70
50250;BME280;36133;42.522;27.456;2023-04-28T02:31:37;100995.63;;;11.45;35.73
50250;BME280;36133;42.522;27.456;2023-04-28T02:34:03;101491.56;;;13.42;37.13
50250;BME280;36133;42.522;27.456;2023-04-28T02:36:28;101603.16;;;14.27;37.21
50250;BME280;36133;42.522;27.456;2023-04-28T02:38:54;101349.25;;;13.08;36.27
50250;BME280;36133;42.522;27.456;2023-04-28T02:41:19;101407.38;;;13.06;37.07
50250;BME280;36133;42.522;27.456;2023-04-28T02:43:45;101410.00;;;13.58;35.78
50250;BME280;36133;42.522;27.456;2023-04-28T02:46:10;101340.63;;;13.05;35.57
50250;BME280;36133;42.522;27.456;2023-04-28T02:48:36;101405.75;;;12.52;37.11
50250;BME280;36133;42.522;27.456;2023-04-28T02:51:01;101618.91;;;14.47;36.31
50250;BME280;36133;42.522;27.456;2023-04-28T02:53:27;101628.84;;;14.10;37.13
50250;BME280;36133;42.522;27.456;2023-04-28T02:55:53;101320.94;;;12.67;36.62
50250;BME280;36133;42.522;27.456;2023-04-28T02:58:19;101517.84;;;14.22;35.92
50250;BME280;36133;42.522;27.456;2023-04-28T03:00:44;101633.84;;;14.93;35.64
50250;BME280;36133;42.522;27.456;2023-04-28T03:03:10;101403.63;;;13.51;35.03
50250;BME280;36133;42.522;27.456;2023-04-28T03:05:36;101651.88;;;14.44;36.25
50250;BME280;36133;42.522;27.456;2023-04-28T03:08:03;101463.59;;;13.41;35.95
50250;BME280;36133;42.522;27.456;2023-04-28T03:10:28;101274.88;;;12.67;35.87
50250;BME280;36133;42.522;27.456;2023-04-28T03:12:54;101135.81;;;11.71;35.75
50250;BME280;36133;42.522;27.456;2023-04-28T03:15:20;101298.97;;;13.42;35.08
50250;BME280;36133;42.522;27.456;2023-04-28T03:17:45;101228.66;;;12.53;35.40
50250;BME280;36133;42.522;27.456;2023-04-28T03:20:11;101448.16;;;13.93;35.33
50250;BME280;36133;42.522;27.456;2023-04-28T03:22:37;101668.09;;;15.31;35.25
50250;BME280;36133;42.522;27.456;2023-04-28T03:25:03;101636.22;;;14.82;35.64
50250;BME280;36133;42.522;27.456;2023-04-28T03:27:30;101666.81;;;14.69;36.93
50250;BME280;36133;42.522;27.456;2023-04-28T03:29:55;101658.53;;;14.56;36.74
50250;BME280;36133;42.522;27.456;2023-04-28T03:32:21;101656.16;;;14.89;36.16
50250;BME280;36133;42.522;27.456;2023-04-28T03:34:46;101609.75;;;13.89;37.09
50250;BME280;36133;42.522;27.456;2023-04-28T03:37:12;101607.06;;;14.40;36.46
50250;BME280;36133;42.522;27.456;2023-04-28T03:39:38;101660.84;;;15.87;34.84
50250;BME280;36133;42.522;27.456;2023-04-28T03:42:03;101687.69;;;15.97;34.90
50250;BME280;36133;42.522;27.456;2023-04-28T03:44:29;101658.25;;;15.58;34.18
50250;BME280;36133;42.522;27.456;2023-04-28T03:46:54;101684.63;;;15.78;34.81
50250;BME280;36133;42.522;27.456;2023-04-28T03:49:20;101493.69;;;15.25;33.80
50250;BME280;36133;42.522;27.456;2023-04-28T03:51:46;101582.97;;;15.99;33.42
50250;BME280;36133;42.522;27.456;2023-04-28T03:54:12;101404.88;;;14.49;33.26
50250;BME280;36133;42.522;27.456;2023-04-28T03:56:37;101697.25;;;16.14;33.68
50250;BME280;36133;42.522;27.456;2023-04-28T03:59:03;101612.19;;;15.56;34.18
50250;BME280;36133;42.522;27.456;2023-04-28T04:01:29;101449.88;;;13.94;34.82
50250;BME280;36133;42.522;27.456;2023-04-28T04:03:54;101631.56;;;15.40;34.30
50250;BME280;36133;42.522;27.456;2023-04-28T04:06:20;101715.69;;;16.19;33.73
50250;BME280;36133;42.522;27.456;2023-04-28T04:08:46;101714.41;;;15.87;33.84
50250;BME280;36133;42.522;27.456;2023-04-28T04:11:12;101698.03;;;16.08;33.84
50250;BME280;36133;42.522;27.456;2023-04-28T04:13:37;101726.31;;;16.41;33.82
50250;BME280;36133;42.522;27.456;2023-04-28T04:16:03;101626.31;;;16.42;32.73
50250;BME280;36133;42.522;27.456;2023-04-28T04:18:29;101412.41;;;14.47;33.68
50250;BME280;36133;42.522;27.456;2023-04-28T04:20:54;101528.06;;;16.02;32.79
50250;BME280;36133;42.522;27.456;2023-04-28T04:23:21;101267.69;;;13.61;34.29
50250;BME280;36133;42.522;27.456;2023-04-28T04:25:48;101670.56;;;15.04;35.50
50250;BME280;36133;42.522;27.456;2023-04-28T04:28:13;101595.53;;;15.66;34.31
50250;BME280;36133;42.522;27.456;2023-04-28T04:30:42;101713.47;;;16.29;34.31
50250;BME280;36133;42.522;27.456;2023-04-28T04:33:09;101481.63;;;14.15;35.10
50250;BME280;36133;42.522;27.456;2023-04-28T04:35:34;101732.38;;;16.37;34.16
50250;BME280;36133;42.522;27.456;2023-04-28T04:38:02;101587.28;;;14.60;35.00
50250;BME280;36133;42.522;27.456;2023-04-28T04:40:27;101738.75;;;16.51;34.19
50250;BME280;36133;42.522;27.456;2023-04-28T04:42:53;101691.72;;;16.90;32.76
50250;BME280;36133;42.522;27.456;2023-04-28T04:45:18;101495.03;;;14.37;34.21
50250;BME280;36133;42.522;27.456;2023-04-28T04:47:44;101753.59;;;16.83;33.28
50250;BME280;36133;42.522;27.456;2023-04-28T04:50:10;101698.47;;;17.07;32.89
50250;BME280;36133;42.522;27.456;2023-04-28T04:52:36;101290.47;;;15.13;32.46
50250;BME280;36133;42.522;27.456;2023-04-28T04:55:01;101679.53;;;16.79;32.15
50250;BME280;36133;42.522;27.456;2023-04-28T04:57:27;101505.19;;;17.11;30.95
50250;BME280;36133;42.522;27.456;2023-04-28T04:59:52;101656.72;;;18.06;29.91
50250;BME280;36133;42.522;27.456;2023-04-28T05:02:18;101531.69;;;17.95;29.78
50250;BME280;36133;42.522;27.456;2023-04-28T05:04:44;101224.13;;;16.59;28.40
50250;BME280;36133;42.522;27.456;2023-04-28T05:07:09;101576.84;;;18.49;28.65
50250;BME280;36133;42.522;27.456;2023-04-28T05:09:35;101692.00;;;19.73;27.90
50250;BME280;36133;42.522;27.456;2023-04-28T05:12:00;101441.06;;;18.36;28.02
50250;BME280;36133;42.522;27.456;2023-04-28T05:14:26;101741.38;;;20.16;27.66
50250;BME280;36133;42.522;27.456;2023-04-28T05:16:52;101289.06;;;16.95;28.47
50250;BME280;36133;42.522;27.456;2023-04-28T05:19:17;101522.69;;;20.00;25.91
50250;BME280;36133;42.522;27.456;2023-04-28T05:21:43;101537.63;;;21.29;24.54
50250;BME280;36133;42.522;27.456;2023-04-28T05:24:08;101547.53;;;21.54;23.99
50250;BME280;36133;42.522;27.456;2023-04-28T05:26:35;101717.22;;;22.29;23.91
50250;BME280;36133;42.522;27.456;2023-04-28T05:29:00;101577.66;;;20.54;24.06
50250;BME280;36133;42.522;27.456;2023-04-28T05:31:26;101298.59;;;18.87;24.92
50250;BME280;36133;42.522;27.456;2023-04-28T05:33:51;101366.56;;;18.15;25.93
50250;BME280;36133;42.522;27.456;2023-04-28T05:36:17;101768.59;;;19.30;27.04
50250;BME280;36133;42.522;27.456;2023-04-28T05:38:43;101212.28;;;15.28;28.70
50250;BME280;36133;42.522;27.456;2023-04-28T05:41:08;101129.00;;;15.27;28.23
50250;BME280;36133;42.522;27.456;2023-04-28T05:43:34;101389.38;;;16.01;29.34
50250;BME280;36133;42.522;27.456;2023-04-28T05:46:00;101416.22;;;18.37;26.93
50250;BME280;36133;42.522;27.456;2023-04-28T05:48:26;101481.97;;;20.15;25.45
50250;BME280;36133;42.522;27.456;2023-04-28T05:50:51;101202.28;;;17.24;26.80
50250;BME280;36133;42.522;27.456;2023-04-28T05:53:17;101649.91;;;20.96;25.67
50250;BME280;36133;42.522;27.456;2023-04-28T05:55:43;101586.28;;;20.39;25.92
50250;BME280;36133;42.522;27.456;2023-04-28T05:58:08;101589.44;;;21.84;24.70
50250;BME280;36133;42.522;27.456;2023-04-28T06:00:34;101717.13;;;22.12;24.24
50250;BME280;36133;42.522;27.456;2023-04-28T06:03:00;101474.84;;;20.56;24.82
50250;BME280;36133;42.522;27.456;2023-04-28T06:05:26;101658.13;;;20.29;23.57
50250;BME280;36133;42.522;27.456;2023-04-28T06:07:51;101437.44;;;17.01;26.10
50250;BME280;36133;42.522;27.456;2023-04-28T06:10:18;101755.81;;;18.53;25.33
50250;BME280;36133;42.522;27.456;2023-04-28T06:12:44;101114.28;;;13.58;27.62
50250;BME280;36133;42.522;27.456;2023-04-28T06:15:10;101304.44;;;14.62;26.65
50250;BME280;36133;42.522;27.456;2023-04-28T06:17:37;101791.16;;;17.55;26.77
50250;BME280;36133;42.522;27.456;2023-04-28T06:20:04;101527.47;;;14.82;28.72
50250;BME280;36133;42.522;27.456;2023-04-28T06:22:30;101675.84;;;15.76;29.09
50250;BME280;36133;42.522;27.456;2023-04-28T06:24:55;101753.28;;;16.30;28.57
50250;BME280;36133;42.522;27.456;2023-04-28T06:27:21;101550.09;;;15.10;28.04
50250;BME280;36133;42.522;27.456;2023-04-28T06:29:48;101751.28;;;16.45;28.07
50250;BME280;36133;42.522;27.456;2023-04-28T06:32:16;101736.66;;;16.59;27.78
50250;BME280;36133;42.522;27.456;2023-04-28T06:34:44;101190.44;;;13.85;27.41
50250;BME280;36133;42.522;27.456;2023-04-28T06:37:10;101587.25;;;17.29;26.70
50250;BME280;36133;42.522;27.456;2023-04-28T06:39:36;101183.13;;;15.02;26.88
50250;BME280;36133;42.522;27.456;2023-04-28T06:42:02;101259.66;;;14.92;25.94
50250;BME280;36133;42.522;27.456;2023-04-28T06:44:28;101436.75;;;16.20;26.09
50250;BME280;36133;42.522;27.456;2023-04-28T06:46:54;101796.72;;;17.95;26.71
50250;BME280;36133;42.522;27.456;2023-04-28T06:49:23;101224.03;;;14.12;27.33
50250;BME280;36133;42.522;27.456;2023-04-28T06:51:48;101198.72;;;13.76;27.71
50250;BME280;36133;42.522;27.456;2023-04-28T06:54:14;101245.84;;;14.25;27.48
50250;BME280;36133;42.522;27.456;2023-04-28T06:56:41;101142.59;;;14.53;26.17
50250;BME280;36133;42.522;27.456;2023-04-28T06:59:06;101589.97;;;17.29;26.42
50250;BME280;36133;42.522;27.456;2023-04-28T07:01:32;101175.94;;;13.71;27.10
50250;BME280;36133;42.522;27.456;2023-04-28T07:03:58;101666.03;;;17.72;25.67
50250;BME280;36133;42.522;27.456;2023-04-28T07:06:24;101321.22;;;15.74;26.03
50250;BME280;36133;42.522;27.456;2023-04-28T07:08:52;101407.66;;;16.53;25.44
50250;BME280;36133;42.522;27.456;2023-04-28T07:11:20;101583.69;;;17.02;26.72
50250;BME280;36133;42.522;27.456;2023-04-28T07:13:47;101598.56;;;16.93;26.48
50250;BME280;36133;42.522;27.456;2023-04-28T07:16:18;101264.69;;;16.23;25.17
50250;BME280;36133;42.522;27.456;2023-04-28T07:18:48;101418.69;;;17.24;24.72
50250;BME280;36133;42.522;27.456;2023-04-28T07:21:14;101562.72;;;19.65;23.82
50250;BME280;36133;42.522;27.456;2023-04-28T07:23:40;101557.63;;;19.43;23.51
50250;BME280;36133;42.522;27.456;2023-04-28T07:26:07;101231.81;;;15.91;24.99
50250;BME280;36133;42.522;27.456;2023-04-28T07:28:33;101742.47;;;18.89;25.04
50250;BME280;36133;42.522;27.456;2023-04-28T07:31:00;101568.03;;;19.35;24.50
50250;BME280;36133;42.522;27.456;2023-04-28T07:33:29;101265.47;;;17.91;23.79
50250;BME280;36133;42.522;27.456;2023-04-28T07:35:55;101291.06;;;19.49;22.25
50250;BME280;36133;42.522;27.456;2023-04-28T07:38:20;101559.50;;;22.23;21.09
50250;BME280;36133;42.522;27.456;2023-04-28T07:40:46;101279.69;;;16.85;24.53
50250;BME280;36133;42.522;27.456;2023-04-28T07:43:12;101401.56;;;17.55;24.51
50250;BME280;36133;42.522;27.456;2023-04-28T07:45:41;101442.97;;;18.60;23.70
50250;BME280;36133;42.522;27.456;2023-04-28T07:48:09;101722.31;;;17.99;26.21
50250;BME280;36133;42.522;27.456;2023-04-28T07:50:39;101562.84;;;16.61;26.40
50250;BME280;36133;42.522;27.456;2023-04-28T07:53:08;101366.78;;;16.27;25.44
50250;BME280;36133;42.522;27.456;2023-04-28T07:55:33;101567.03;;;17.76;25.56
50250;BME280;36133;42.522;27.456;2023-04-28T07:57:59;101266.56;;;15.69;26.00
50250;BME280;36133;42.522;27.456;2023-04-28T08:00:25;101408.34;;;17.46;25.28
50250;BME280;36133;42.522;27.456;2023-04-28T08:02:51;101725.22;;;21.00;23.34
50250;BME280;36133;42.522;27.456;2023-04-28T08:05:17;101564.09;;;20.40;22.81
50250;BME280;36133;42.522;27.456;2023-04-28T08:07:42;101739.50;;;20.54;23.12
50250;BME280;36133;42.522;27.456;2023-04-28T08:10:11;101253.75;;;17.14;23.88
50250;BME280;36133;42.522;27.456;2023-04-28T08:12:37;101428.69;;;17.44;24.70
50250;BME280;36133;42.522;27.456;2023-04-28T08:15:03;101654.00;;;18.64;25.34
50250;BME280;36133;42.522;27.456;2023-04-28T08:17:29;101465.91;;;18.59;23.70
50250;BME280;36133;42.522;27.456;2023-04-28T08:19:55;101645.69;;;18.84;24.72
50250;BME280;36133;42.522;27.456;2023-04-28T08:22:20;101394.63;;;17.53;24.47
50250;BME280;36133;42.522;27.456;2023-04-28T08:24:46;101458.25;;;18.11;24.21
50250;BME280;36133;42.522;27.456;2023-04-28T08:27:12;101546.41;;;18.38;24.19
50250;BME280;36133;42.522;27.456;2023-04-28T08:29:37;101267.59;;;16.41;25.89
50250;BME280;36133;42.522;27.456;2023-04-28T08:32:04;101568.53;;;19.25;24.83
50250;BME280;36133;42.522;27.456;2023-04-28T08:34:31;101370.53;;;19.31;22.50
50250;BME280;36133;42.522;27.456;2023-04-28T08:36:57;101711.75;;;22.17;21.93
50250;BME280;36133;42.522;27.456;2023-04-28T08:39:26;101500.31;;;19.67;23.34
50250;BME280;36133;42.522;27.456;2023-04-28T08:41:52;101304.09;;;19.06;22.78
50250;BME280;36133;42.522;27.456;2023-04-28T08:44:18;101621.59;;;21.96;22.07
50250;BME280;36133;42.522;27.456;2023-04-28T08:46:45;101484.09;;;20.85;22.08
50250;BME280;36133;42.522;27.456;2023-04-28T08:49:15;101486.31;;;19.13;23.79
50250;BME280;36133;42.522;27.456;2023-04-28T08:51:48;101533.94;;;18.49;23.84
50250;BME280;36133;42.522;27.456;2023-04-28T08:54:15;101533.59;;;19.45;23.23
50250;BME280;36133;42.522;27.456;2023-04-28T08:56:45;101623.84;;;20.20;23.46
50250;BME280;36133;42.522;27.456;2023-04-28T08:59:11;101519.31;;;19.98;23.19
50250;BME280;36133;42.522;27.456;2023-04-28T09:01:40;101462.41;;;19.82;23.06
50250;BME280;36133;42.522;27.456;2023-04-28T09:04:08;101698.56;;;20.15;24.13
50250;BME280;36133;42.522;27.456;2023-04-28T09:06:37;101699.75;;;22.23;22.34
50250;BME280;36133;42.522;27.456;2023-04-28T09:12:10;101716.56;;;21.68;22.19
50250;BME280;36133;42.522;27.456;2023-04-28T09:14:37;101713.75;;;20.36;23.07
50250;BME280;36133;42.522;27.456;2023-04-28T09:17:09;101216.44;;;18.39;23.35
50250;BME280;36133;42.522;27.456;2023-04-28T09:19:37;101428.06;;;19.24;23.10
50250;BME280;36133;42.522;27.456;2023-04-28T09:22:04;101356.75;;;19.19;23.27
50250;BME280;36133;42.522;27.456;2023-04-28T09:24:35;101543.81;;;20.60;22.25
50250;BME280;36133;42.522;27.456;2023-04-28T09:27:05;101174.91;;;17.37;23.49
50250;BME280;36133;42.522;27.456;2023-04-28T09:29:32;101166.47;;;17.39;24.09
50250;BME280;36133;42.522;27.456;2023-04-28T09:32:21;101208.78;;;17.23;23.80
50250;BME280;36133;42.522;27.456;2023-04-28T09:34:49;101377.72;;;18.70;23.65
50250;BME280;36133;42.522;27.456;2023-04-28T09:37:24;101455.78;;;19.89;22.19
50250;BME280;36133;42.522;27.456;2023-04-28T09:39:52;101136.66;;;18.97;22.27
50250;BME280;36133;42.522;27.456;2023-04-28T09:42:35;101423.94;;;23.94;18.29
50250;BME280;36133;42.522;27.456;2023-04-28T09:45:03;101639.97;;;24.65;19.65
50250;BME280;36133;42.522;27.456;2023-04-28T09:47:30;101126.56;;;19.86;20.78
50250;BME280;36133;42.522;27.456;2023-04-28T09:50:03;101441.53;;;19.81;22.89
50250;BME280;36133;42.522;27.456;2023-04-28T09:52:35;101676.78;;;20.57;23.47
50250;BME280;36133;42.522;27.456;2023-04-28T09:55:03;101316.00;;;18.74;23.51
50250;BME280;36133;42.522;27.456;2023-04-28T09:57:31;101324.97;;;18.13;23.84
50250;BME280;36133;42.522;27.456;2023-04-28T09:59:57;101482.94;;;21.40;22.05
50250;BME280;36133;42.522;27.456;2023-04-28T10:02:24;101398.59;;;19.93;22.08
50250;BME280;36133;42.522;27.456;2023-04-28T10:04:58;101511.69;;;21.60;21.30
50250;BME280;36133;42.522;27.456;2023-04-28T10:07:35;101450.34;;;18.60;23.71
50250;BME280;36133;42.522;27.456;2023-04-28T10:10:02;101481.59;;;19.02;24.35
50250;BME280;36133;42.522;27.456;2023-04-28T10:12:28;101237.09;;;17.28;24.55
50250;BME280;36133;42.522;27.456;2023-04-28T10:14:54;101658.13;;;20.29;23.69
50250;BME280;36133;42.522;27.456;2023-04-28T10:17:21;101096.59;;;17.06;23.48
50250;BME280;36133;42.522;27.456;2023-04-28T10:19:53;101147.22;;;19.35;22.53
50250;BME280;36133;42.522;27.456;2023-04-28T10:27:32;101475.97;;;19.58;23.29
50250;BME280;36133;42.522;27.456;2023-04-28T10:32:37;101105.50;;;19.63;21.36
50250;BME280;36133;42.522;27.456;2023-04-28T10:38:17;101401.44;;;19.50;23.17
50250;BME280;36133;42.522;27.456;2023-04-28T10:40:48;101275.88;;;20.18;21.46
50250;BME280;36133;42.522;27.456;2023-04-28T10:43:32;101652.41;;;22.33;22.15
50250;BME280;36133;42.522;27.456;2023-04-28T10:45:59;101541.28;;;20.58;23.02
50250;BME280;36133;42.522;27.456;2023-04-28T10:56:20;101444.88;;;18.66;24.36
50250;BME280;36133;42.522;27.456;2023-04-28T10:58:52;101476.50;;;20.15;23.15
50250;BME280;36133;42.522;27.456;2023-04-28T11:03:59;101653.28;;;22.50;21.82
50250;BME280;36133;42.522;27.456;2023-04-28T11:06:37;101180.88;;;19.24;21.52
50250;BME280;36133;42.522;27.456;2023-04-28T11:14:38;101636.13;;;21.26;22.76
50250;BME280;36133;42.522;27.456;2023-04-28T11:17:10;101322.16;;;21.49;20.90
50250;BME280;36133;42.522;27.456;2023-04-28T11:19:42;101382.25;;;24.17;18.71
50250;BME280;36133;42.522;27.456;2023-04-28T11:22:16;101443.06;;;23.18;19.06
50250;BME280;36133;42.522;27.456;2023-04-28T11:25:01;101616.31;;;20.94;22.53
50250;BME280;36133;42.522;27.456;2023-04-28T11:27:31;101557.78;;;21.82;21.44
50250;BME280;36133;42.522;27.456;2023-04-28T11:30:01;101461.47;;;22.79;20.09
50250;BME280;36133;42.522;27.456;2023-04-28T11:32:29;101374.13;;;22.58;20.11
50250;BME280;36133;42.522;27.456;2023-04-28T11:34:55;101546.63;;;23.53;19.84
50250;BME280;36133;42.522;27.456;2023-04-28T11:37:20;101649.69;;;22.49;21.70
50250;BME280;36133;42.522;27.456;2023-04-28T11:39:47;101654.22;;;23.13;20.17
50250;BME280;36133;42.522;27.456;2023-04-28T11:42:13;101556.81;;;21.76;21.12
50250;BME280;36133;42.522;27.456;2023-04-28T11:44:39;101178.88;;;19.01;22.24
50250;BME280;36133;42.522;27.456;2023-04-28T11:47:08;101318.13;;;20.88;20.91
50250;BME280;36133;42.522;27.456;2023-04-28T11:49:43;101646.41;;;23.38;20.29
50250;BME280;36133;42.522;27.456;2023-04-28T11:52:09;101477.19;;;21.93;21.20
50250;BME280;36133;42.522;27.456;2023-04-28T11:54:36;101201.19;;;18.50;22.93
50250;BME280;36133;42.522;27.456;2023-04-28T11:57:02;101667.50;;;20.40;23.94
50250;BME280;36133;42.522;27.456;2023-04-28T11:59:33;101625.19;;;21.49;22.00
50250;BME280;36133;42.522;27.456;2023-04-28T12:02:04;101258.41;;;19.36;22.42
50250;BME280;36133;42.522;27.456;2023-04-28T12:07:00;101631.69;;;20.53;23.48
50250;BME280;36133;42.522;27.456;2023-04-28T12:09:26;101446.19;;;18.82;24.24
50250;BME280;36133;42.522;27.456;2023-04-28T12:11:56;101395.53;;;20.01;22.96
50250;BME280;36133;42.522;27.456;2023-04-28T12:14:24;101086.25;;;18.08;22.57
50250;BME280;36133;42.522;27.456;2023-04-28T12:16:49;101374.47;;;19.17;22.93
50250;BME280;36133;42.522;27.456;2023-04-28T12:19:16;101644.13;;;21.27;22.33
50250;BME280;36133;42.522;27.456;2023-04-28T12:22:01;101350.66;;;20.26;22.25
50250;BME280;36133;42.522;27.456;2023-04-28T12:24:27;101371.44;;;20.68;22.37
50250;BME280;36133;42.522;27.456;2023-04-28T12:26:53;101221.66;;;19.14;22.76
50250;BME280;36133;42.522;27.456;2023-04-28T12:29:39;101638.91;;;20.11;23.86
50250;BME280;36133;42.522;27.456;2023-04-28T12:32:10;101472.88;;;19.30;24.03
50250;BME280;36133;42.522;27.456;2023-04-28T12:34:38;101431.59;;;18.07;25.04
50250;BME280;36133;42.522;27.456;2023-04-28T12:37:05;101468.88;;;18.58;24.73
50250;BME280;36133;42.522;27.456;2023-04-28T12:39:32;101434.41;;;19.80;22.31
50250;BME280;36133;42.522;27.456;2023-04-28T12:41:58;101355.56;;;19.15;22.57
50250;BME280;36133;42.522;27.456;2023-04-28T12:44:25;101031.03;;;17.19;23.18
50250;BME280;36133;42.522;27.456;2023-04-28T12:46:52;101434.69;;;20.73;22.33
50250;BME280;36133;42.522;27.456;2023-04-28T12:49:19;101433.69;;;20.56;22.53
50250;BME280;36133;42.522;27.456;2023-04-28T12:51:45;101257.81;;;19.34;23.09
50250;BME280;36133;42.522;27.456;2023-04-28T12:54:10;101159.28;;;18.56;23.31
50250;BME280;36133;42.522;27.456;2023-04-28T12:56:36;101279.13;;;19.14;23.64
50250;BME280;36133;42.522;27.456;2023-04-28T12:59:05;101225.00;;;18.67;23.20
50250;BME280;36133;42.522;27.456;2023-04-28T13:01:33;101100.13;;;18.43;22.22
50250;BME280;36133;42.522;27.456;2023-04-28T13:03:59;101282.34;;;20.12;22.19
50250;BME280;36133;42.522;27.456;2023-04-28T13:06:26;101428.25;;;20.26;22.54
50250;BME280;36133;42.522;27.456;2023-04-28T13:09:01;101355.19;;;17.94;24.98
50250;BME280;36133;42.522;27.456;2023-04-28T13:11:28;101400.31;;;18.53;25.08